Terminal Aerodrome Forecast
Issued by NWS

Home | Current Version | Previous Version | Text Only | Print | Product List | Glossary On
Versions: 1 2 3 4 5 6 7 8 9 10 11 12 13 14 15
000
FTUS42 KFFC 012333
TAFRYY
TAF
KRYY 012333Z 0200/0224 02004KT P6SM FEW050
     FM020200 35006KT P6SM FEW250
     FM021200 04005KT P6SM FEW250
     FM021600 07008KT P6SM SCT040
     FM022200 03005KT P6SM FEW060
      AMD NOT SKED 0204/0212=

USA.gov is the U.S. government's official web portal to all federal, state and local government web resources and services.